x

Eel River - 17nm Wsw Of Eureka, Ca (46022) Wave Buoy

5:50am - Sun 7th Feb 2016 All times are PST. -8 hours from GMT.

  • Sig Wave height 6.6ft
  • Swell Direction
  • Peak Period 12s
  • Average Period 10s
  • Wind
    7mph, 9mph gusts
  • Sea Temp 53°f
  • Air Temp 52°f
  • Sea Pressure 1028.3mb
  • Eel River - 17nm Wsw Of Eureka, Ca
  • Eel River - 17nm Wsw Of Eureka, Ca

More Historic Weather Station data

Upgrade to MSW Pro to gain access to the past 30 days of data for over 8000 Wavebouys and Weather Stations around the globe.

Join Pro

Comparision Forecast

View Surf forecast
   
Sun 02/07 5:50am 6.5ft 12s 10s 7 9 mph 1028.3mb 53f 52f
4:50am 7ft 11s 10s 9 11 mph 1028.4mb 53f 52f
3:50am 7.5ft 12s 10s 7
mph
1028.6mb 53f 51f
2:50am 6.5ft 13s 9s 4 7 mph 1028.7mb 52f 51f
1:50am 7ft 13s 9s 4
mph
1028.8mb 52f 51f
12:50am 7ft 13s 9s 4 7 mph 1029.4mb 53f 52f
Sat 02/06 11:50pm 7ft 14s 9s  -  2 mph 1029.5mb 53f 53f
10:50pm 7ft 14s 9s  -  2 mph 1029.7mb 53f 54f
9:50pm 8ft 14s 9s 2 7 mph 1029.7mb 53f 55f
8:50pm 8ft 13s 9s 2 4 mph 1030.1mb 53f 53f
7:50pm 9ft 13s 9s 4 7 mph 1029.5mb 53f 53f
6:50pm 9ft 13s 9s 4 7 mph 1029.6mb 53f 54f
5:50pm 9.5ft 13s 9s 4 7 mph 1029mb 53f 54f
4:50pm 10ft 12s 10s 9 11 mph 1029.2mb 53f 55f
3:50pm 10ft 12s 10s 7 9 mph 1028.4mb 53f 55f
2:50pm 9.5ft 12s 9s 9 11 mph 1028.1mb 53f 55f
1:50pm 9ft 11s 9s 11 13 mph 1028.6mb 53f 54f
12:50pm 10ft 12s 10s 7 11 mph 1029.5mb 53f 54f
11:50am 9ft 13s 10s 9 11 mph 1029.8mb 53f 54f
10:50am 9ft 13s 10s 9 11 mph 1030.5mb 53f 54f
9:50am 9ft 14s 10s 7
mph
1030.3mb 53f 54f
8:50am 8.5ft 13s 10s 9 11 mph 1030.1mb 53f 53f
7:50am 8ft 12s 10s 11 13 mph 1029.7mb 53f 52f
6:50am 9ft 14s 10s 9 11 mph 1029.6mb 53f 52f
5:50am 8ft 14s 9s 9 11 mph 1029.7mb 53f 53f
4:50am 9ft 14s 10s 11 13 mph 1029.5mb 53f 54f
3:50am 9.5ft 15s 10s 9 11 mph 1029.7mb 53f 54f
2:50am 11ft 14s 10s 9 11 mph 1030.1mb 53f 53f
1:50am 12ft 14s 10s 9 11 mph 1030.1mb 53f 54f
12:50am 12ft 15s 10s 11 13 mph 1030mb 53f 54f
Fri 02/05 11:50pm 13.5ft 13s 10s 11 13 mph 1030.2mb 53f 54f
10:50pm 12ft 14s 10s 16 18 mph 1029.8mb 53f 54f
9:50pm 13ft 14s 10s 16 20 mph 1029.1mb 53f 54f
8:50pm 12ft 14s 10s 16 18 mph 1029.4mb 53f 54f
7:50pm 12ft 14s 10s 18 22 mph 1029.6mb 53f 54f
6:50pm 12ft 13s 10s 18 22 mph 1029.6mb 53f 54f
5:50pm 12ft 14s 10s 18 20 mph 1029.4mb 53f 55f
4:50pm 11.5ft 14s 10s 18 22 mph 1029mb 53f 54f
3:50pm 12.5ft 14s 10s 20 25 mph 1028.1mb 53f 55f
2:50pm 10.5ft 15s 9s 18 22 mph 1028.4mb 53f 54f
1:50pm 10.5ft 15s 9s 20 25 mph 1028.9mb 54f 54f
12:50pm 9.5ft 15s 8s 22 27 mph 1029.4mb 53f 53f
11:50am 10.5ft 15s 9s 22 25 mph 1029.4mb 53f 53f
10:50am 10ft 15s 9s 22 27 mph 1029.3mb 53f 54f
9:50am 10.5ft 15s 10s 22 27 mph 1028.9mb 53f 53f
8:50am 10.5ft 15s 10s 18 22 mph 1028.7mb 53f 52f
7:50am 10ft 15s 10s 13 16 mph 1028.4mb 53f 52f
6:50am 12ft 15s 11s 11 13 mph 1028.4mb 53f 50f
5:50am 12ft 15s 11s 11 13 mph 1028.6mb 53f 52f
4:50am 14ft 15s 11s 13 16 mph 1028.9mb 53f 52f
3:50am 15ft 16s 12s 11 13 mph 1028.9mb 53f 53f
2:50am 15ft 15s 12s 11
mph
1029.2mb 52f 52f
1:50am 15ft 15s 12s 7 11 mph 1028.6mb 53f 51f
12:50am 15.5ft 16s 12s 11 16 mph 1028.6mb 53f 51f
Thu 02/04 11:50pm 14ft 14s 12s 13 20 mph 1028.8mb 53f 51f
10:50pm 17.5ft 15s 13s 11 16 mph 1028.8mb 53f 51f
9:50pm 15ft 16s 12s 9 13 mph 1029mb 53f 51f
8:50pm 15.5ft 16s 13s 9 13 mph 1029.2mb 53f 52f
7:50pm 16ft 16s 13s 4 9 mph 1029.5mb 53f 53f
6:50pm 16.5ft 17s 13s 4 11 mph 1029.7mb 53f 52f
5:50pm 16.5ft 17s 13s 7 11 mph 1030.2mb 53f 53f
4:50pm 14ft 17s 12s 2 4 mph 1030.8mb 53f 53f
3:50pm 15.5ft 17s 13s 2 7 mph 1030.6mb 53f 54f
2:50pm 15ft 17s 12s 7 11 mph 1030.5mb 53f 54f
1:50pm 17.5ft 19s 13s 11 13 mph 1030.7mb 53f 54f
12:50pm 18ft 19s 13s 11 16 mph 1030.8mb 53f 53f
11:50am 16.5ft 17s 12s 4 9 mph 1031.4mb 53f 53f
10:50am 20ft 19s 13s 9 16 mph 1031.4mb 53f 52f
9:50am 17ft 19s 12s 4 9 mph 1031.7mb 53f 50f
8:50am 19ft 19s 13s 9 13 mph 1031.6mb 53f 49f
7:50am 18.5ft 16s 13s 11 18 mph 1030.9mb 53f 49f
6:50am 21.5ft 19s 14s 9 16 mph 1031mb 53f 49f
5:50am 22ft 19s 14s 11 18 mph 1030.7mb 53f 49f
4:50am 22.5ft 19s 14s 4 11 mph 1030.9mb 53f 51f
3:50am 19.5ft 17s 14s 4 9 mph 1031mb 53f 52f
2:50am 15.5ft 19s 14s 4 9 mph 1030.8mb 53f 52f
1:50am 15ft 17s 13s 4
mph
1030.5mb 53f 52f
12:50am 13.5ft 19s 12s 9 11 mph 1030.4mb 53f 51f
Wed 02/03 11:50pm 13ft 19s 12s 9 11 mph 1030.5mb 53f 51f
10:50pm 15ft 19s 13s 9 11 mph 1030.2mb 53f 51f
9:50pm 12ft 19s 11s 4 7 mph 1029.7mb 53f 53f
8:50pm 11.5ft 21s 10s 4 7 mph 1029.2mb 53f 53f
7:50pm 11ft 21s 9s 4 7 mph 1028.6mb 53f 53f
6:50pm 12ft 21s 9s 7 9 mph 1027.9mb 53f 53f
5:50pm 11ft 8s 8s 7 9 mph 1026.7mb 53f 52f
4:50pm 11.5ft 8s 8s 18 22 mph 1026.5mb 53f 51f
3:50pm 11ft 16s 8s 22 29 mph 1024.9mb 54f 51f